createdAt,value
2019-05-15T00:01:08.820Z,1.70
2019-05-15T00:03:39.068Z,2.00
2019-05-15T00:06:08.776Z,1.53
2019-05-15T00:08:38.841Z,1.50
2019-05-15T00:11:08.280Z,1.53
2019-05-15T00:13:38.908Z,1.90
2019-05-15T00:16:08.469Z,1.60
2019-05-15T00:18:39.103Z,1.87
2019-05-15T00:21:09.301Z,1.70
2019-05-15T00:23:38.776Z,1.50
2019-05-15T00:26:09.345Z,1.63
2019-05-15T00:28:38.811Z,1.63
2019-05-15T00:31:09.034Z,1.90
2019-05-15T00:33:39.388Z,1.40
2019-05-15T00:36:08.654Z,1.60
2019-05-15T00:38:39.030Z,1.50
2019-05-15T00:41:09.412Z,1.77
2019-05-15T00:43:38.700Z,1.50
2019-05-15T00:46:09.332Z,1.97
2019-05-15T00:48:39.821Z,1.90
2019-05-15T00:51:08.447Z,1.63
2019-05-15T00:53:39.015Z,1.80
2019-05-15T00:56:08.837Z,1.73
2019-05-15T00:58:39.882Z,1.80
2019-05-15T01:01:08.366Z,2.30
2019-05-15T01:03:38.793Z,1.90
2019-05-15T01:06:08.316Z,2.03
2019-05-15T01:08:39.093Z,1.53
2019-05-15T01:11:09.165Z,1.70
2019-05-15T01:13:38.834Z,2.10
2019-05-15T01:16:09.151Z,1.70
2019-05-15T01:18:38.492Z,2.00
2019-05-15T01:21:08.372Z,2.00
2019-05-15T01:23:39.082Z,1.90
2019-05-15T01:26:08.343Z,1.70
2019-05-15T01:28:38.337Z,2.03
2019-05-15T01:31:08.611Z,1.60
2019-05-15T01:33:39.048Z,1.70
2019-05-15T01:36:08.500Z,1.90
2019-05-15T01:38:38.883Z,1.80
2019-05-15T01:41:09.772Z,1.40
2019-05-15T01:43:38.299Z,1.77
2019-05-15T01:46:08.465Z,1.87
2019-05-15T01:48:38.881Z,2.23
2019-05-15T01:51:09.366Z,1.93
2019-05-15T01:53:38.497Z,1.83
2019-05-15T01:56:08.364Z,1.67
2019-05-15T01:58:38.167Z,1.80
2019-05-15T02:01:08.113Z,1.70
2019-05-15T02:03:38.541Z,2.00
2019-05-15T02:06:08.206Z,1.97
2019-05-15T02:08:39.262Z,2.10
2019-05-15T02:11:09.195Z,1.83
2019-05-15T02:13:38.913Z,1.80
2019-05-15T02:16:08.367Z,2.30
2019-05-15T02:18:39.207Z,1.97
2019-05-15T02:21:09.940Z,2.30
2019-05-15T02:23:40.325Z,2.17
2019-05-15T02:26:08.566Z,1.93
2019-05-15T02:28:38.357Z,2.20
2019-05-15T02:31:10.423Z,1.73
2019-05-15T02:33:40.080Z,2.03
2019-05-15T02:36:09.802Z,2.37
2019-05-15T02:38:40.988Z,1.83
2019-05-15T02:41:10.144Z,2.30
2019-05-15T02:43:39.299Z,2.27
2019-05-15T02:46:10.126Z,2.43
2019-05-15T02:48:40.920Z,2.10
2019-05-15T02:51:09.642Z,2.60
2019-05-15T02:53:39.620Z,2.57
2019-05-15T02:56:09.488Z,2.40
2019-05-15T02:58:39.879Z,2.23
2019-05-15T03:01:09.269Z,2.50
2019-05-15T03:03:38.719Z,2.40
2019-05-15T03:06:09.911Z,3.00
2019-05-15T03:08:39.857Z,2.77
2019-05-15T03:11:09.778Z,2.70
2019-05-15T03:13:39.179Z,2.70
2019-05-15T03:16:10.058Z,2.83
2019-05-15T03:18:39.818Z,3.03
2019-05-15T03:21:09.693Z,2.53
2019-05-15T03:23:40.390Z,2.87
2019-05-15T03:26:09.172Z,2.77
2019-05-15T03:28:39.284Z,2.87
2019-05-15T03:31:26.244Z,3.13
2019-05-15T03:33:44.848Z,3.13
2019-05-15T03:36:13.535Z,2.97
2019-05-15T03:38:39.724Z,2.90
2019-05-15T03:41:10.298Z,2.70
2019-05-15T03:43:39.403Z,2.93
2019-05-15T03:46:09.035Z,3.27
2019-05-15T03:48:40.355Z,2.77
2019-05-15T03:51:09.205Z,3.13
2019-05-15T03:53:40.127Z,2.87
2019-05-15T03:56:09.734Z,2.97
2019-05-15T03:58:40.111Z,3.10
2019-05-15T04:01:27.253Z,2.80
2019-05-15T04:03:39.689Z,3.10
2019-05-15T04:06:09.975Z,3.00
2019-05-15T04:08:39.391Z,2.87
2019-05-15T04:11:09.218Z,3.20
2019-05-15T04:13:39.625Z,2.67
2019-05-15T04:16:10.343Z,2.90
2019-05-15T04:18:39.564Z,2.77
2019-05-15T04:21:09.405Z,2.63
2019-05-15T04:23:39.162Z,2.80
2019-05-15T04:26:09.685Z,2.87
2019-05-15T04:28:41.595Z,2.63
2019-05-15T04:31:10.343Z,3.00
2019-05-15T04:33:39.975Z,3.30
2019-05-15T04:36:09.840Z,3.00
2019-05-15T04:38:39.486Z,2.80
2019-05-15T04:41:09.700Z,2.97
2019-05-15T04:43:44.105Z,3.47
2019-05-15T04:46:09.745Z,3.00
2019-05-15T04:48:39.798Z,3.10
2019-05-15T04:51:09.689Z,3.13
2019-05-15T04:53:39.379Z,2.93
2019-05-15T04:56:09.436Z,2.90
2019-05-15T04:58:39.396Z,3.17
2019-05-15T05:01:09.283Z,3.20
2019-05-15T05:03:39.303Z,3.30
2019-05-15T05:06:10.176Z,3.20
2019-05-15T05:08:40.014Z,2.73
2019-05-15T05:11:09.663Z,3.20
2019-05-15T05:13:39.343Z,3.30
2019-05-15T05:16:09.596Z,3.00
2019-05-15T05:18:41.439Z,2.83
2019-05-15T05:21:09.516Z,2.10
2019-05-15T05:23:38.592Z,2.37
2019-05-15T05:26:10.882Z,2.30
2019-05-15T05:28:37.995Z,2.70
2019-05-15T05:31:08.492Z,2.30
2019-05-15T05:33:38.193Z,2.50
2019-05-15T05:36:07.934Z,2.50
2019-05-15T05:38:38.663Z,2.30
2019-05-15T05:41:08.479Z,2.37
2019-05-15T05:43:38.394Z,2.20
2019-05-15T05:46:09.287Z,2.30
2019-05-15T05:48:38.357Z,1.83
2019-05-15T05:51:09.214Z,2.23
2019-05-15T05:53:38.338Z,1.90
2019-05-15T05:56:08.931Z,2.30
2019-05-15T05:58:39.184Z,2.07
2019-05-15T06:01:09.442Z,1.80
2019-05-15T06:03:39.013Z,2.07
2019-05-15T06:06:09.717Z,1.90
2019-05-15T06:08:39.351Z,2.20
2019-05-15T06:11:09.785Z,2.03
2019-05-15T06:13:38.324Z,1.90
2019-05-15T06:16:08.469Z,1.87
2019-05-15T06:18:38.753Z,2.33
2019-05-15T06:21:09.053Z,1.60
2019-05-15T06:23:44.103Z,1.60
2019-05-15T06:26:09.375Z,1.83
2019-05-15T06:28:39.441Z,2.13
2019-05-15T06:31:08.757Z,2.00
2019-05-15T06:33:38.448Z,2.50
2019-05-15T06:36:08.902Z,1.63
2019-05-15T06:38:39.246Z,1.77
2019-05-15T06:41:08.757Z,1.87
2019-05-15T06:43:38.945Z,1.70
2019-05-15T06:46:09.109Z,1.63
2019-05-15T06:48:38.082Z,1.30
2019-05-15T06:51:08.622Z,1.73
2019-05-15T06:53:38.421Z,1.30
2019-05-15T06:56:08.002Z,1.60
2019-05-15T06:58:38.607Z,1.73
2019-05-15T07:01:08.751Z,1.47
2019-05-15T07:03:39.197Z,1.37
2019-05-15T07:06:09.443Z,2.03
2019-05-15T07:08:38.430Z,1.57
2019-05-15T07:11:08.861Z,1.40
2019-05-15T07:13:38.386Z,1.30
2019-05-15T07:16:08.085Z,1.63
2019-05-15T07:18:39.061Z,1.43
2019-05-15T07:21:10.322Z,1.50
2019-05-15T07:23:38.660Z,1.70
2019-05-15T07:26:09.468Z,1.00
2019-05-15T07:28:37.997Z,1.13
2019-05-15T07:31:11.270Z,1.40
2019-05-15T07:33:43.233Z,1.47
2019-05-15T07:36:08.444Z,1.50
2019-05-15T07:38:39.063Z,1.33
2019-05-15T07:41:10.267Z,1.43
2019-05-15T07:43:38.420Z,1.00
2019-05-15T07:46:08.369Z,1.53
2019-05-15T07:48:38.433Z,1.43
2019-05-15T07:51:11.391Z,1.70
2019-05-15T07:53:38.428Z,1.40
2019-05-15T07:56:11.437Z,1.60
2019-05-15T07:58:38.659Z,1.53
2019-05-15T08:01:09.691Z,1.43
2019-05-15T08:03:47.166Z,1.60
2019-05-15T08:06:08.831Z,1.67
2019-05-15T08:08:39.321Z,1.60
2019-05-15T08:11:17.708Z,1.10
2019-05-15T08:13:38.369Z,1.20
2019-05-15T08:16:08.647Z,1.33
2019-05-15T08:18:39.137Z,1.50
2019-05-15T08:21:08.997Z,1.13
2019-05-15T08:23:39.230Z,1.73
2019-05-15T08:26:08.736Z,1.50
2019-05-15T08:28:38.262Z,1.50
2019-05-15T08:31:10.148Z,1.00
2019-05-15T08:33:38.926Z,1.37
2019-05-15T08:36:08.373Z,1.50
2019-05-15T08:38:38.330Z,1.50
2019-05-15T08:41:11.181Z,1.27
2019-05-15T08:43:38.216Z,1.30
2019-05-15T08:46:08.332Z,1.20
2019-05-15T08:48:38.326Z,1.30
2019-05-15T08:51:08.816Z,1.40
2019-05-15T08:53:37.948Z,1.87
2019-05-15T08:56:08.569Z,1.60
2019-05-15T08:58:38.231Z,1.40
2019-05-15T09:01:09.748Z,1.50
2019-05-15T09:03:38.147Z,1.70
2019-05-15T09:06:09.014Z,1.43
2019-05-15T09:08:39.035Z,1.70
2019-05-15T09:11:08.963Z,1.57
2019-05-15T09:13:43.381Z,2.00
2019-05-15T09:16:08.380Z,2.20
2019-05-15T09:18:39.156Z,1.70
2019-05-15T09:21:08.782Z,1.23
2019-05-15T09:23:38.807Z,1.10
2019-05-15T09:26:09.239Z,1.57
2019-05-15T09:28:39.123Z,1.53
2019-05-15T09:31:08.366Z,1.60
2019-05-15T09:33:38.693Z,1.50
2019-05-15T09:36:09.015Z,1.20
2019-05-15T09:38:39.002Z,1.57
2019-05-15T09:41:08.933Z,1.20
2019-05-15T09:43:38.546Z,1.30
2019-05-15T09:46:10.378Z,1.30
2019-05-15T09:48:39.936Z,1.70
2019-05-15T09:51:09.238Z,1.03
2019-05-15T09:53:39.488Z,1.30
2019-05-15T09:56:08.266Z,1.37
2019-05-15T09:58:38.112Z,1.30
2019-05-15T10:01:08.535Z,1.20
2019-05-15T10:03:39.612Z,1.17
2019-05-15T10:06:08.140Z,1.30
2019-05-15T10:08:39.671Z,0.80
2019-05-15T10:11:09.121Z,1.20
2019-05-15T10:13:38.443Z,1.50
2019-05-15T10:16:08.299Z,1.00
2019-05-15T10:18:38.888Z,1.47
2019-05-15T10:21:08.945Z,1.40
2019-05-15T10:23:40.372Z,1.20
2019-05-15T10:26:13.614Z,1.50
2019-05-15T10:28:39.265Z,1.40
2019-05-15T10:31:09.398Z,1.20
2019-05-15T10:33:39.296Z,1.27
2019-05-15T10:36:08.425Z,1.30
2019-05-15T10:38:39.153Z,1.40
2019-05-15T10:41:11.192Z,1.10
2019-05-15T10:43:44.627Z,1.10
2019-05-15T10:46:13.268Z,1.20
2019-05-15T10:48:38.609Z,1.43
2019-05-15T10:51:10.041Z,1.10
2019-05-15T10:53:39.122Z,1.30
2019-05-15T10:56:08.984Z,1.10
2019-05-15T10:58:39.305Z,1.40
2019-05-15T11:01:11.027Z,1.20
2019-05-15T11:03:39.939Z,0.90
2019-05-15T11:06:09.053Z,1.20
2019-05-15T11:08:40.456Z,0.73
2019-05-15T11:11:09.217Z,1.13
2019-05-15T11:13:38.130Z,1.17
2019-05-15T11:16:06.602Z,1.00
2019-05-15T11:18:35.451Z,1.07
2019-05-15T11:21:03.991Z,1.03
2019-05-15T11:23:32.318Z,1.17
2019-05-15T11:26:00.444Z,1.63
2019-05-15T11:28:32.235Z,1.10
2019-05-15T11:31:00.174Z,1.37
2019-05-15T11:33:29.392Z,1.10
2019-05-15T11:36:05.392Z,1.00
2019-05-15T11:38:29.098Z,0.90
2019-05-15T11:40:57.549Z,1.20
2019-05-15T11:43:28.900Z,1.37
2019-05-15T11:45:58.750Z,1.20
2019-05-15T11:48:29.575Z,1.50
2019-05-15T11:50:58.439Z,1.23
2019-05-15T11:53:28.392Z,1.23
2019-05-15T11:55:56.870Z,1.23
2019-05-15T11:58:25.462Z,1.27
2019-05-15T12:00:53.999Z,1.40
2019-05-15T12:03:24.840Z,1.37
2019-05-15T12:05:52.508Z,1.03
2019-05-15T12:08:21.017Z,1.00
2019-05-15T12:10:49.265Z,1.43
2019-05-15T12:13:19.194Z,1.23
2019-05-15T12:15:48.416Z,1.50
2019-05-15T12:18:17.026Z,1.53
2019-05-15T12:20:45.172Z,1.50
2019-05-15T12:23:13.447Z,1.47
2019-05-15T12:25:41.939Z,1.03
2019-05-15T12:28:10.105Z,1.30
2019-05-15T12:30:40.224Z,1.73
2019-05-15T12:33:09.731Z,1.50
2019-05-15T12:35:39.617Z,1.53
2019-05-15T12:38:10.027Z,1.23
2019-05-15T13:00:40.401Z,1.50
2019-05-15T13:03:09.211Z,1.50
2019-05-15T13:05:39.153Z,1.43
2019-05-15T13:08:08.482Z,1.60
2019-05-15T13:10:38.401Z,1.10
2019-05-15T13:13:09.464Z,1.50
2019-05-15T13:15:40.963Z,1.60
2019-05-15T13:18:14.237Z,1.53
2019-05-15T13:20:38.967Z,1.30
2019-05-15T13:23:07.367Z,1.50
2019-05-15T13:25:35.659Z,1.67
2019-05-15T13:28:04.386Z,1.60
2019-05-15T13:30:32.586Z,1.37
2019-05-15T13:33:00.883Z,1.47
2019-05-15T13:35:29.335Z,1.60
2019-05-15T13:37:58.612Z,1.77
2019-05-15T13:40:37.711Z,1.00
2019-05-15T13:42:58.934Z,1.30
2019-05-15T13:45:28.909Z,1.50
2019-05-15T13:47:57.373Z,1.40
2019-05-15T13:50:28.339Z,1.70
2019-05-15T13:52:55.632Z,1.50
2019-05-15T13:55:25.825Z,1.40
2019-05-15T13:57:53.990Z,1.73
2019-05-15T14:00:22.956Z,1.10
2019-05-15T14:02:51.563Z,1.40
2019-05-15T14:05:19.822Z,1.40
2019-05-15T14:07:50.695Z,1.20
2019-05-15T14:10:18.525Z,1.10
2019-05-15T14:12:47.880Z,1.13
2019-05-15T14:15:16.831Z,1.30
2019-05-15T14:17:45.305Z,1.80
2019-05-15T14:20:13.877Z,1.30
2019-05-15T14:22:42.089Z,1.50
2019-05-15T14:25:11.836Z,1.33
2019-05-15T14:27:40.502Z,1.60
2019-05-15T14:30:10.678Z,2.07
2019-05-15T14:32:39.566Z,1.30
2019-05-15T14:35:09.392Z,1.40
2019-05-15T14:37:37.666Z,1.70
2019-05-15T14:40:08.674Z,1.53
2019-05-15T14:42:39.510Z,1.40
2019-05-15T14:45:09.138Z,1.30
2019-05-15T14:47:38.586Z,1.67
2019-05-15T14:50:10.144Z,1.60
2019-05-15T14:52:38.819Z,1.50
2019-05-15T14:55:08.135Z,1.50
2019-05-15T14:57:39.153Z,1.57
2019-05-15T15:00:08.938Z,1.67
2019-05-15T15:02:38.893Z,1.00
2019-05-15T15:05:08.878Z,1.30
2019-05-15T15:07:38.155Z,1.50
2019-05-15T15:10:08.103Z,1.17
2019-05-15T15:12:39.560Z,1.40
2019-05-15T15:15:09.977Z,1.20
2019-05-15T15:17:40.304Z,1.30
2019-05-15T15:20:09.151Z,1.50
2019-05-15T15:22:39.408Z,1.10
2019-05-15T15:25:09.549Z,1.13
2019-05-15T15:27:38.887Z,1.30
2019-05-15T15:30:09.284Z,1.30
2019-05-15T15:32:37.924Z,1.13
2019-05-15T15:35:08.588Z,1.10
2019-05-15T15:37:38.192Z,1.10
2019-05-15T15:40:08.299Z,1.17
2019-05-15T15:42:39.087Z,1.10
2019-05-15T15:45:09.597Z,1.00
2019-05-15T15:47:38.926Z,1.30
2019-05-15T15:50:09.494Z,1.30
2019-05-15T15:52:38.736Z,0.90
2019-05-15T15:55:08.821Z,0.87
2019-05-15T15:57:39.640Z,0.97
2019-05-15T16:00:10.564Z,1.23
2019-05-15T16:02:41.032Z,0.90
2019-05-15T16:05:09.990Z,0.83
2019-05-15T16:07:38.364Z,0.90
2019-05-15T16:10:08.339Z,1.10
2019-05-15T16:12:38.908Z,0.77
2019-05-15T16:15:08.806Z,1.03
2019-05-15T16:17:38.454Z,1.00
2019-05-15T16:20:09.557Z,0.97
2019-05-15T16:22:38.388Z,1.00
2019-05-15T16:25:09.662Z,0.97
2019-05-15T16:27:38.310Z,1.10
2019-05-15T16:30:08.470Z,0.80
2019-05-15T16:32:38.956Z,0.87
2019-05-15T16:35:08.278Z,0.83
2019-05-15T16:37:38.756Z,0.87
2019-05-15T16:40:07.860Z,0.90
2019-05-15T16:42:38.593Z,0.83
2019-05-15T16:45:09.336Z,0.70
2019-05-15T16:47:38.864Z,1.20
2019-05-15T16:50:08.580Z,1.23
2019-05-15T16:52:38.738Z,1.43
2019-05-15T16:55:09.209Z,0.80
2019-05-15T16:57:38.721Z,0.93
2019-05-15T17:00:09.503Z,0.90
2019-05-15T17:02:39.278Z,1.00
2019-05-15T17:05:09.665Z,0.93
2019-05-15T17:07:38.788Z,1.10
2019-05-15T17:10:08.349Z,0.90
2019-05-15T17:12:38.713Z,0.90
2019-05-15T17:15:08.513Z,0.97
2019-05-15T17:17:38.783Z,1.57
2019-05-15T17:20:09.757Z,0.97
2019-05-15T17:22:38.430Z,0.97
2019-05-15T17:25:09.278Z,0.87
2019-05-15T17:27:37.233Z,1.10
2019-05-15T17:30:09.296Z,1.10
2019-05-15T17:32:39.730Z,1.00
2019-05-15T17:35:09.766Z,0.97
2019-05-15T17:37:38.478Z,1.40
2019-05-15T17:40:07.166Z,0.90
2019-05-15T17:42:35.344Z,0.97
2019-05-15T17:45:04.302Z,1.33
2019-05-15T17:47:32.504Z,0.93
2019-05-15T17:50:00.968Z,1.10
2019-05-15T17:52:30.422Z,1.20
2019-05-15T17:54:59.284Z,1.07
2019-05-15T17:57:28.642Z,1.00
2019-05-15T17:59:59.043Z,0.80
2019-05-15T18:02:28.584Z,0.70
2019-05-15T18:04:58.736Z,0.80
2019-05-15T18:07:28.233Z,0.80
2019-05-15T18:09:58.948Z,0.70
2019-05-15T18:12:29.192Z,0.77
2019-05-15T18:14:59.789Z,0.70
2019-05-15T18:17:27.972Z,1.00
2019-05-15T18:19:57.971Z,0.77
2019-05-15T18:22:26.770Z,0.90
2019-05-15T18:24:55.276Z,0.90
2019-05-15T18:27:23.449Z,0.60
2019-05-15T18:29:53.571Z,0.60
2019-05-15T18:32:22.429Z,1.10
2019-05-15T18:34:50.622Z,0.80
2019-05-15T18:37:19.210Z,0.87
2019-05-15T18:39:51.907Z,0.90
2019-05-15T18:42:18.724Z,0.80
2019-05-15T18:44:48.198Z,0.80
2019-05-15T18:47:18.621Z,0.60
2019-05-15T18:50:03.372Z,0.63
2019-05-15T18:52:18.152Z,0.90
2019-05-15T18:54:48.038Z,0.70
2019-05-15T18:57:18.489Z,0.80
2019-05-15T18:59:48.673Z,0.60
2019-05-15T19:02:19.026Z,0.70
2019-05-15T19:04:49.146Z,0.70
2019-05-15T19:07:18.192Z,0.70
2019-05-15T19:09:48.093Z,0.77
2019-05-15T19:12:17.895Z,0.67
2019-05-15T19:14:49.165Z,0.80
2019-05-15T19:17:18.558Z,1.10
2019-05-15T19:19:48.176Z,0.60
2019-05-15T19:22:19.087Z,1.00
2019-05-15T19:24:46.603Z,0.90
2019-05-15T19:27:18.611Z,0.80
2019-05-15T19:29:48.361Z,0.70
2019-05-15T19:32:17.760Z,0.70
2019-05-15T19:34:48.390Z,0.70
2019-05-15T19:37:18.384Z,0.70
2019-05-15T19:39:47.944Z,0.40
2019-05-15T19:42:18.136Z,0.63
2019-05-15T19:44:48.451Z,0.60
2019-05-15T19:47:18.580Z,0.70
2019-05-15T19:49:48.399Z,0.60
2019-05-15T19:52:17.899Z,0.87
2019-05-15T19:54:48.542Z,0.83
2019-05-15T19:57:18.622Z,0.90
2019-05-15T19:59:48.874Z,0.60
2019-05-15T20:02:17.989Z,0.80
2019-05-15T20:04:46.452Z,0.90
2019-05-15T20:07:14.716Z,0.80
2019-05-15T20:09:43.422Z,0.80
2019-05-15T20:12:11.563Z,0.63
2019-05-15T20:14:41.928Z,0.60
2019-05-15T20:17:10.063Z,0.83
2019-05-15T20:19:38.420Z,0.93
2019-05-15T20:22:08.014Z,0.67
2019-05-15T20:24:38.252Z,0.83
2019-05-15T20:27:08.494Z,0.53
2019-05-15T20:29:38.351Z,0.87
2019-05-15T20:32:06.808Z,0.63
2019-05-15T20:34:37.800Z,0.67
2019-05-15T20:37:05.444Z,0.70
2019-05-15T20:39:33.802Z,0.80
2019-05-15T20:42:02.535Z,0.97
2019-05-15T20:44:31.519Z,0.90
2019-05-15T20:46:59.770Z,0.77
2019-05-15T20:49:28.751Z,0.70
2019-05-15T20:51:58.187Z,0.63
2019-05-15T20:54:28.424Z,0.80
2019-05-15T20:56:58.363Z,1.10
2019-05-15T20:59:26.770Z,0.80
2019-05-15T21:01:55.808Z,0.70
2019-05-15T21:04:25.375Z,0.77
2019-05-15T21:06:53.577Z,0.93
2019-05-15T21:09:21.876Z,0.50
2019-05-15T21:11:50.744Z,0.60
2019-05-15T21:14:19.315Z,0.70
2019-05-15T21:16:48.492Z,0.83
2019-05-15T21:19:18.805Z,0.53
2019-05-15T21:21:47.962Z,0.40
2019-05-15T21:24:18.197Z,0.83
2019-05-15T21:26:48.834Z,0.87
2019-05-15T21:29:18.475Z,0.87
2019-05-15T21:31:49.053Z,0.57
2019-05-15T21:34:32.239Z,0.90
2019-05-15T21:36:48.344Z,0.50
2019-05-15T21:39:18.947Z,0.60
2019-05-15T21:41:48.897Z,0.60
2019-05-15T21:44:19.039Z,0.60
2019-05-15T21:46:48.121Z,0.77
2019-05-15T21:49:19.196Z,0.90
2019-05-15T21:51:48.013Z,0.60
2019-05-15T21:54:17.922Z,0.80
2019-05-15T21:56:47.485Z,0.67
2019-05-15T21:59:18.686Z,0.63
2019-05-15T22:01:48.310Z,0.60
2019-05-15T22:04:17.425Z,0.53
2019-05-15T22:06:45.619Z,0.67
2019-05-15T22:09:18.420Z,0.70
2019-05-15T22:11:49.774Z,0.60
2019-05-15T22:14:18.208Z,0.60
2019-05-15T22:16:47.064Z,0.70
2019-05-15T22:19:18.138Z,0.60
2019-05-15T22:21:46.059Z,0.67
2019-05-15T22:24:14.622Z,0.53
2019-05-15T22:26:43.157Z,0.60
2019-05-15T22:29:12.541Z,0.53
2019-05-15T22:31:40.980Z,0.83
2019-05-15T22:34:09.466Z,0.50
2019-05-15T22:36:38.158Z,0.50
2019-05-15T22:39:08.701Z,0.70
2019-05-15T22:41:38.858Z,0.57
2019-05-15T22:44:08.024Z,0.63
2019-05-15T22:46:39.366Z,0.70
2019-05-15T22:49:08.112Z,0.60
2019-05-15T22:51:38.224Z,0.60
2019-05-15T22:54:08.633Z,0.40
2019-05-15T22:56:37.882Z,0.53
2019-05-15T22:59:08.622Z,0.70
2019-05-15T23:01:38.934Z,0.60
2019-05-15T23:04:09.024Z,0.47
2019-05-15T23:06:38.861Z,0.60
2019-05-15T23:09:07.949Z,0.50
2019-05-15T23:11:39.070Z,0.70
2019-05-15T23:14:08.116Z,0.70
2019-05-15T23:16:38.986Z,0.60
2019-05-15T23:19:08.161Z,0.60
2019-05-15T23:21:37.852Z,1.00
2019-05-15T23:24:08.550Z,0.50
2019-05-15T23:26:38.960Z,0.60
2019-05-15T23:29:07.961Z,0.73
2019-05-15T23:31:36.675Z,0.60
2019-05-15T23:34:05.240Z,0.57
2019-05-15T23:36:34.172Z,0.80
2019-05-15T23:39:03.278Z,0.80
2019-05-15T23:41:31.730Z,0.60
2019-05-15T23:43:59.957Z,0.60
2019-05-15T23:46:28.837Z,0.47
2019-05-15T23:48:58.819Z,0.77
2019-05-15T23:51:27.902Z,0.57
2019-05-15T23:53:58.726Z,1.00
2019-05-15T23:56:29.096Z,0.60
2019-05-15T23:58:57.154Z,0.60
